createdAt,value
2023-03-18T00:01:17.981Z,40.67
2023-03-18T00:04:19.601Z,35.20
2023-03-18T00:07:21.371Z,27.77
2023-03-18T00:10:23.326Z,29.77
2023-03-18T00:13:25.613Z,27.57
2023-03-18T00:16:27.315Z,24.63
2023-03-18T00:19:29.038Z,23.23
2023-03-18T00:22:30.701Z,27.43
2023-03-18T00:25:32.907Z,24.97
2023-03-18T00:28:35.247Z,26.90
2023-03-18T00:31:38.739Z,28.40
2023-03-18T00:34:40.641Z,25.23
2023-03-18T00:37:42.621Z,25.67
2023-03-18T00:40:53.347Z,25.27
2023-03-18T00:43:55.367Z,21.90
2023-03-18T00:46:57.274Z,22.50
2023-03-18T00:49:59.133Z,19.80
2023-03-18T00:53:00.864Z,22.47
2023-03-18T00:56:02.578Z,27.27
2023-03-18T00:59:04.855Z,25.00
2023-03-18T01:02:06.769Z,23.73
2023-03-18T01:05:08.533Z,22.43
2023-03-18T01:08:10.214Z,27.87
2023-03-18T01:11:12.031Z,34.60
2023-03-18T01:14:13.676Z,25.40
2023-03-18T01:17:15.665Z,27.60
2023-03-18T01:20:18.225Z,21.70
2023-03-18T01:23:23.728Z,25.40
2023-03-18T01:26:26.290Z,26.40
2023-03-18T01:29:30.990Z,25.10
2023-03-18T01:32:33.315Z,24.87
2023-03-18T01:35:36.061Z,29.57
2023-03-18T01:38:38.115Z,28.30
2023-03-18T01:41:48.916Z,28.47
2023-03-18T01:45:18.105Z,27.77
2023-03-18T01:48:22.006Z,20.70
2023-03-18T01:51:26.695Z,22.90
2023-03-18T01:54:29.617Z,21.53
2023-03-18T01:57:32.809Z,20.47
2023-03-18T02:00:39.825Z,21.57
2023-03-18T02:03:42.975Z,18.30
2023-03-18T02:06:45.626Z,19.33
2023-03-18T02:09:49.067Z,38.67
2023-03-18T02:13:10.065Z,35.53
2023-03-18T02:16:34.451Z,21.57
2023-03-18T02:19:49.174Z,19.17
2023-03-18T02:22:54.024Z,19.00
2023-03-18T02:25:59.041Z,18.10
2023-03-18T02:29:03.177Z,23.03
2023-03-18T02:32:08.289Z,74.90
2023-03-18T02:35:11.704Z,53.47
2023-03-18T02:38:14.416Z,32.07
2023-03-18T02:41:18.232Z,25.03
2023-03-18T02:44:21.316Z,21.40
2023-03-18T02:47:44.910Z,21.50
2023-03-18T02:50:48.459Z,20.50
2023-03-18T02:53:50.829Z,21.53
2023-03-18T02:56:53.620Z,22.20
2023-03-18T02:59:55.430Z,20.50
2023-03-18T03:02:58.279Z,23.97
2023-03-18T03:06:01.059Z,25.57
2023-03-18T03:09:04.133Z,25.07
2023-03-18T03:12:05.953Z,28.07
2023-03-18T03:15:09.993Z,28.70
2023-03-18T03:18:17.698Z,25.97
2023-03-18T03:21:19.537Z,26.30
2023-03-18T03:24:21.160Z,26.70
2023-03-18T03:27:23.167Z,24.43
2023-03-18T03:30:26.375Z,27.63
2023-03-18T03:33:28.368Z,25.63
2023-03-18T03:36:31.693Z,25.60
2023-03-18T03:39:33.986Z,26.07
2023-03-18T03:42:35.892Z,22.87
2023-03-18T03:45:37.788Z,25.03
2023-03-18T03:48:39.805Z,20.90
2023-03-18T03:51:46.491Z,21.80
2023-03-18T03:54:48.420Z,22.10
2023-03-18T03:57:50.402Z,23.80
2023-03-18T04:00:52.536Z,24.27
2023-03-18T04:03:54.260Z,23.80
2023-03-18T04:06:56.395Z,22.03
2023-03-18T04:09:58.034Z,21.57
2023-03-18T04:12:59.725Z,22.23
2023-03-18T04:16:02.850Z,19.23
2023-03-18T04:19:07.295Z,20.57
2023-03-18T04:22:09.725Z,23.17
2023-03-18T04:25:14.894Z,23.43
2023-03-18T04:28:16.811Z,23.90
2023-03-18T04:31:19.088Z,22.23
2023-03-18T04:34:22.282Z,23.43
2023-03-18T04:37:24.226Z,21.10
2023-03-18T04:40:31.387Z,25.37
2023-03-18T04:43:34.586Z,22.77
2023-03-18T04:46:38.010Z,36.23
2023-03-18T04:49:40.163Z,28.53
2023-03-18T04:52:42.757Z,27.60
2023-03-18T04:55:48.518Z,24.60
2023-03-18T04:58:50.912Z,28.13
2023-03-18T05:01:57.235Z,25.50
2023-03-18T05:05:00.749Z,26.93
2023-03-18T05:08:04.022Z,28.53
2023-03-18T05:11:05.849Z,30.27
2023-03-18T05:14:10.408Z,30.50
2023-03-18T05:17:17.910Z,24.40
2023-03-18T05:20:29.014Z,24.17
2023-03-18T05:23:31.228Z,28.37
2023-03-18T05:26:33.290Z,27.23
2023-03-18T05:29:35.336Z,29.70
2023-03-18T05:33:03.548Z,32.43
2023-03-18T05:36:25.628Z,31.47
2023-03-18T05:39:34.730Z,31.63
2023-03-18T05:42:54.935Z,27.97
2023-03-18T05:46:01.801Z,30.97
2023-03-18T05:49:20.724Z,30.27
2023-03-18T05:52:45.479Z,32.20
2023-03-18T05:55:53.827Z,37.33
2023-03-18T05:58:55.697Z,37.50
2023-03-18T06:02:17.680Z,29.77
2023-03-18T06:05:19.717Z,35.60
2023-03-18T06:08:22.423Z,34.20
2023-03-18T06:11:24.528Z,34.27
2023-03-18T06:14:29.478Z,33.27
2023-03-18T06:17:34.789Z,34.77
2023-03-18T06:20:36.441Z,41.07
2023-03-18T06:23:38.556Z,39.27
2023-03-18T06:26:41.520Z,36.67
2023-03-18T06:29:44.141Z,37.60
2023-03-18T06:32:49.581Z,41.23
2023-03-18T06:35:53.348Z,36.17
2023-03-18T06:38:56.020Z,31.27
2023-03-18T06:42:00.360Z,32.13
2023-03-18T06:45:26.488Z,27.67
2023-03-18T06:48:40.254Z,22.67
2023-03-18T06:51:43.623Z,27.90
2023-03-18T06:54:46.223Z,32.87
2023-03-18T06:57:50.468Z,31.43
2023-03-18T07:00:57.008Z,32.50
2023-03-18T07:04:02.899Z,35.00
2023-03-18T07:07:05.933Z,33.60
2023-03-18T07:10:11.758Z,37.30
2023-03-18T07:13:15.418Z,36.23
2023-03-18T07:16:17.362Z,43.40
2023-03-18T07:19:19.493Z,38.37
2023-03-18T07:22:21.353Z,37.97
2023-03-18T07:25:23.255Z,43.97
2023-03-18T07:28:25.814Z,41.67
2023-03-18T07:31:30.095Z,45.30
2023-03-18T07:34:34.908Z,46.53
2023-03-18T07:37:42.912Z,44.47
2023-03-18T07:40:44.581Z,45.27
2023-03-18T07:43:46.674Z,49.37
2023-03-18T07:46:48.986Z,47.83
2023-03-18T07:49:51.920Z,44.90
2023-03-18T07:52:56.885Z,50.43
2023-03-18T07:55:58.635Z,46.73
2023-03-18T07:59:03.456Z,67.50
2023-03-18T08:02:09.242Z,45.50
2023-03-18T08:05:11.460Z,39.73
2023-03-18T08:08:16.728Z,35.07
2023-03-18T08:11:18.723Z,28.80
2023-03-18T08:14:20.341Z,31.00
2023-03-18T08:17:21.931Z,39.53
2023-03-18T08:20:24.796Z,39.53
2023-03-18T08:23:29.388Z,30.73
2023-03-18T08:26:31.277Z,31.80
2023-03-18T08:29:35.304Z,28.80
2023-03-18T08:32:37.612Z,16.03
2023-03-18T08:35:41.517Z,11.53
2023-03-18T08:38:46.214Z,9.47
2023-03-18T08:41:48.857Z,14.43
2023-03-18T08:44:51.173Z,9.17
2023-03-18T08:47:53.811Z,7.93
2023-03-18T08:51:08.494Z,13.83
2023-03-18T08:54:10.209Z,10.80
2023-03-18T08:57:11.933Z,6.00
2023-03-18T09:00:14.236Z,6.47
2023-03-18T09:03:16.109Z,14.27
2023-03-18T09:06:17.894Z,9.30
2023-03-18T09:09:20.042Z,9.40
2023-03-18T09:12:22.797Z,9.07
2023-03-18T09:15:24.809Z,7.30
2023-03-18T09:18:38.424Z,6.97
2023-03-18T09:21:40.204Z,7.97
2023-03-18T09:24:42.234Z,8.93
2023-03-18T09:27:46.254Z,5.57
2023-03-18T09:30:48.427Z,7.63
2023-03-18T09:33:51.265Z,10.20
2023-03-18T09:36:53.099Z,6.13
2023-03-18T09:39:54.864Z,5.53
2023-03-18T09:43:15.971Z,8.97
2023-03-18T09:46:23.758Z,7.30
2023-03-18T09:49:36.950Z,8.13
2023-03-18T09:52:38.612Z,7.87
2023-03-18T09:55:47.062Z,8.97
2023-03-18T09:58:52.286Z,9.83
2023-03-18T10:01:54.934Z,10.20
2023-03-18T10:05:01.868Z,13.53
2023-03-18T10:08:06.873Z,7.50
2023-03-18T10:11:47.005Z,8.30
2023-03-18T10:14:55.106Z,7.37
2023-03-18T10:18:17.450Z,12.53
2023-03-18T10:21:19.096Z,18.07
2023-03-18T10:24:27.620Z,13.60
2023-03-18T10:27:35.107Z,6.67
2023-03-18T10:30:49.248Z,7.83
2023-03-18T10:33:59.693Z,6.70
2023-03-18T10:37:05.903Z,10.57
2023-03-18T10:40:12.547Z,7.13
2023-03-18T10:43:22.195Z,10.67
2023-03-18T10:46:25.820Z,7.97
2023-03-18T10:49:31.578Z,14.13
2023-03-18T10:52:33.527Z,12.40
2023-03-18T10:55:37.959Z,12.00
2023-03-18T10:58:40.734Z,10.90
2023-03-18T11:01:47.541Z,7.73
2023-03-18T11:04:54.545Z,19.37
2023-03-18T11:07:57.797Z,5.93
2023-03-18T11:11:02.146Z,4.93
2023-03-18T11:14:04.826Z,6.40
2023-03-18T11:17:20.127Z,8.80
2023-03-18T11:20:24.854Z,8.07
2023-03-18T11:23:56.096Z,9.30
2023-03-18T11:26:57.965Z,11.13
2023-03-18T11:30:02.025Z,7.30
2023-03-18T11:33:12.978Z,6.93
2023-03-18T11:36:21.261Z,10.20
2023-03-18T11:39:23.903Z,8.80
2023-03-18T11:42:25.669Z,5.40
2023-03-18T11:45:43.879Z,8.50
2023-03-18T11:48:45.602Z,10.53
2023-03-18T11:51:56.665Z,7.17
2023-03-18T11:55:12.854Z,8.50
2023-03-18T11:58:26.158Z,9.67
2023-03-18T12:01:32.799Z,7.47
2023-03-18T12:04:51.529Z,7.13
2023-03-18T12:08:02.524Z,6.00
2023-03-18T12:11:10.263Z,7.60
2023-03-18T12:14:23.443Z,10.03
2023-03-18T12:17:30.082Z,7.67
2023-03-18T12:20:32.610Z,5.93
2023-03-18T12:23:34.358Z,7.93
2023-03-18T12:26:39.182Z,6.70
2023-03-18T12:29:43.845Z,9.13
2023-03-18T12:32:51.049Z,13.23
2023-03-18T12:35:52.682Z,13.23
2023-03-18T12:39:00.744Z,9.63
2023-03-18T12:42:06.594Z,6.70
2023-03-18T12:45:08.577Z,8.00
2023-03-18T12:48:14.060Z,7.23
2023-03-18T12:51:18.441Z,8.30
2023-03-18T12:54:27.733Z,6.93
2023-03-18T12:57:39.186Z,8.13
2023-03-18T13:00:48.020Z,7.13
2023-03-18T13:04:12.064Z,10.53
2023-03-18T13:07:21.088Z,6.17
2023-03-18T13:10:24.110Z,10.10
2023-03-18T13:13:27.826Z,7.80
2023-03-18T13:16:30.398Z,5.40
2023-03-18T13:19:33.600Z,12.00
2023-03-18T13:22:35.410Z,10.50
2023-03-18T13:25:37.173Z,5.27
2023-03-18T13:28:42.676Z,10.30
2023-03-18T13:31:59.998Z,6.53
2023-03-18T13:35:15.917Z,7.37
2023-03-18T13:38:23.342Z,7.03
2023-03-18T13:41:32.626Z,6.20
2023-03-18T13:44:56.880Z,7.90
2023-03-18T13:48:00.548Z,8.33
2023-03-18T13:51:22.524Z,5.83
2023-03-18T13:54:26.396Z,5.67
2023-03-18T13:57:28.393Z,8.53
2023-03-18T14:00:31.127Z,8.67
2023-03-18T14:03:42.092Z,9.23
2023-03-18T14:06:52.933Z,6.77
2023-03-18T14:10:11.662Z,13.77
2023-03-18T14:13:28.275Z,9.10
2023-03-18T14:16:37.823Z,7.73
2023-03-18T14:19:39.592Z,8.37
2023-03-18T14:22:45.321Z,6.57
2023-03-18T14:25:54.738Z,4.93
2023-03-18T14:29:02.710Z,12.67
2023-03-18T14:32:27.266Z,12.00
2023-03-18T14:35:47.141Z,9.03
2023-03-18T14:39:03.448Z,7.80
2023-03-18T14:42:11.394Z,8.93
2023-03-18T14:45:15.428Z,11.90
2023-03-18T14:48:19.137Z,11.63
2023-03-18T14:51:22.116Z,7.27
2023-03-18T14:54:26.431Z,13.30
2023-03-18T14:57:28.426Z,9.47
2023-03-18T15:00:35.711Z,9.23
2023-03-18T15:03:43.648Z,11.07
2023-03-18T15:06:45.608Z,13.33
2023-03-18T15:09:49.830Z,13.10
2023-03-18T15:12:58.515Z,12.57
2023-03-18T15:16:04.952Z,13.80
2023-03-18T15:19:11.500Z,12.00
2023-03-18T15:22:21.244Z,13.93
2023-03-18T15:25:22.916Z,9.03
2023-03-18T15:28:34.379Z,11.07
2023-03-18T15:31:41.470Z,10.13
2023-03-18T15:34:46.766Z,10.83
2023-03-18T15:38:01.913Z,12.80
2023-03-18T15:41:10.571Z,9.77
2023-03-18T15:44:16.608Z,10.20
2023-03-18T15:47:27.426Z,14.90
2023-03-18T15:50:30.539Z,15.30
2023-03-18T15:53:56.577Z,15.47
2023-03-18T15:57:11.057Z,18.10
2023-03-18T16:00:14.420Z,12.27
2023-03-18T16:03:22.233Z,8.67
2023-03-18T16:06:24.564Z,12.53
2023-03-18T16:09:26.517Z,12.63
2023-03-18T16:12:29.690Z,17.17
2023-03-18T16:15:32.059Z,13.63
2023-03-18T16:18:35.034Z,20.00
2023-03-18T16:21:37.268Z,20.57
2023-03-18T16:24:39.110Z,16.67
2023-03-18T16:27:48.480Z,20.27
2023-03-18T16:30:52.392Z,23.17
2023-03-18T16:33:56.137Z,26.17
2023-03-18T16:36:57.889Z,24.80
2023-03-18T16:40:00.842Z,25.03
2023-03-18T16:43:02.515Z,24.80
2023-03-18T16:46:04.372Z,27.27
2023-03-18T16:49:06.130Z,29.07
2023-03-18T16:52:10.610Z,28.40
2023-03-18T16:55:13.520Z,29.20
2023-03-18T16:58:17.810Z,27.20
2023-03-18T17:01:19.698Z,28.40
2023-03-18T17:04:31.608Z,27.30
2023-03-18T17:07:36.829Z,25.27
2023-03-18T17:10:39.108Z,38.40
2023-03-18T17:13:40.779Z,88.53
2023-03-18T17:16:42.508Z,45.50
2023-03-18T17:19:44.770Z,46.60
2023-03-18T17:22:46.942Z,42.07
2023-03-18T17:25:49.933Z,90.93
2023-03-18T17:28:53.972Z,33.23
2023-03-18T17:31:56.168Z,415.73
2023-03-18T17:34:57.850Z,166.90
2023-03-18T17:37:59.854Z,109.60
2023-03-18T17:41:03.843Z,74.30
2023-03-18T17:44:17.298Z,59.87
2023-03-18T17:47:19.407Z,52.00
2023-03-18T17:50:21.482Z,105.43
2023-03-18T17:53:24.912Z,85.70
2023-03-18T17:56:28.037Z,75.03
2023-03-18T17:59:29.925Z,67.33
2023-03-18T18:02:32.558Z,68.57
2023-03-18T18:05:34.410Z,69.10
2023-03-18T18:08:36.334Z,84.83
2023-03-18T18:11:39.763Z,97.67
2023-03-18T18:14:41.456Z,67.20
2023-03-18T18:17:43.451Z,61.77
2023-03-18T18:20:45.222Z,68.47
2023-03-18T18:23:47.329Z,63.37
2023-03-18T18:26:49.038Z,64.83
2023-03-18T18:29:50.615Z,70.33
2023-03-18T18:32:52.411Z,73.63
2023-03-18T18:35:54.587Z,70.40
2023-03-18T18:38:57.291Z,60.10
2023-03-18T18:41:59.074Z,47.03
2023-03-18T18:45:01.409Z,39.30
2023-03-18T18:48:10.841Z,47.90
2023-03-18T18:51:18.320Z,46.23
2023-03-18T18:54:23.477Z,58.63
2023-03-18T18:57:26.860Z,56.50
2023-03-18T19:00:28.653Z,63.43
2023-03-18T19:03:31.320Z,66.47
2023-03-18T19:06:33.121Z,56.57
2023-03-18T19:09:35.118Z,48.10
2023-03-18T19:12:36.719Z,45.37
2023-03-18T19:15:38.528Z,42.20
2023-03-18T19:18:41.913Z,54.97
2023-03-18T19:21:43.836Z,54.67
2023-03-18T19:24:48.249Z,56.30
2023-03-18T19:27:50.053Z,56.30
2023-03-18T19:30:53.718Z,41.87
2023-03-18T19:33:55.346Z,42.37
2023-03-18T19:36:57.050Z,39.57
2023-03-18T19:39:59.899Z,37.77
2023-03-18T19:43:01.793Z,38.53
2023-03-18T19:46:03.543Z,41.07
2023-03-18T19:49:26.615Z,34.47
2023-03-18T19:52:28.933Z,33.70
2023-03-18T19:55:30.946Z,40.90
2023-03-18T19:58:32.611Z,36.33
2023-03-18T20:01:34.628Z,37.20
2023-03-18T20:04:37.465Z,44.70
2023-03-18T20:07:39.145Z,45.73
2023-03-18T20:10:41.957Z,41.87
2023-03-18T20:13:44.242Z,39.83
2023-03-18T20:16:46.111Z,36.63
2023-03-18T20:19:47.977Z,39.30
2023-03-18T20:23:09.857Z,42.37
2023-03-18T20:26:11.825Z,40.97
2023-03-18T20:29:17.979Z,49.30
2023-03-18T20:32:19.720Z,52.17
2023-03-18T20:35:21.880Z,52.30
2023-03-18T20:38:39.642Z,57.93
2023-03-18T20:41:49.658Z,54.47
2023-03-18T20:44:51.566Z,49.67
2023-03-18T20:47:53.228Z,48.83
2023-03-18T20:50:58.096Z,38.23
2023-03-18T20:54:02.083Z,33.77
2023-03-18T20:57:04.590Z,35.80
2023-03-18T21:00:07.543Z,37.97
2023-03-18T21:03:29.441Z,36.23
2023-03-18T21:06:31.267Z,30.00
2023-03-18T21:09:35.457Z,30.80
2023-03-18T21:12:37.124Z,32.30
2023-03-18T21:15:38.656Z,25.10
2023-03-18T21:18:46.052Z,23.97
2023-03-18T21:21:47.683Z,25.80
2023-03-18T21:24:49.700Z,24.03
2023-03-18T21:27:51.672Z,26.83
2023-03-18T21:30:57.848Z,37.57
2023-03-18T21:34:00.625Z,31.13
2023-03-18T21:37:02.335Z,32.93
2023-03-18T21:40:07.863Z,34.90
2023-03-18T21:43:24.599Z,38.63
2023-03-18T21:46:27.326Z,36.77
2023-03-18T21:49:29.022Z,40.73
2023-03-18T21:52:31.296Z,34.70
2023-03-18T21:55:33.234Z,27.00
2023-03-18T21:58:35.105Z,31.10
2023-03-18T22:01:36.838Z,30.00
2023-03-18T22:04:38.495Z,27.40
2023-03-18T22:07:40.238Z,29.40
2023-03-18T22:10:41.860Z,31.77
2023-03-18T22:13:43.706Z,26.80
2023-03-18T22:16:45.318Z,38.63
2023-03-18T22:19:47.525Z,35.60
2023-03-18T22:22:49.123Z,42.60
2023-03-18T22:25:54.796Z,40.73
2023-03-18T22:28:56.362Z,39.70
2023-03-18T22:31:58.007Z,33.03
2023-03-18T22:34:59.696Z,30.70
2023-03-18T22:38:01.649Z,37.10
2023-03-18T22:41:03.445Z,34.23
2023-03-18T22:44:05.491Z,26.70
2023-03-18T22:47:12.140Z,27.60
2023-03-18T22:50:13.756Z,37.03
2023-03-18T22:53:35.634Z,52.77
2023-03-18T22:56:37.205Z,44.20
2023-03-18T22:59:39.235Z,36.60
2023-03-18T23:02:40.884Z,36.77
2023-03-18T23:05:42.554Z,29.20
2023-03-18T23:08:45.653Z,24.67
2023-03-18T23:11:47.337Z,25.50
2023-03-18T23:14:49.369Z,30.97
2023-03-18T23:17:51.132Z,30.87
2023-03-18T23:20:52.795Z,34.10
2023-03-18T23:23:54.971Z,33.10
2023-03-18T23:26:57.031Z,28.57
2023-03-18T23:29:58.699Z,28.13
2023-03-18T23:33:00.548Z,29.73
2023-03-18T23:36:03.746Z,30.07
2023-03-18T23:39:05.620Z,25.27
2023-03-18T23:42:07.225Z,23.93
2023-03-18T23:45:09.276Z,22.33
2023-03-18T23:48:11.202Z,26.27
2023-03-18T23:51:12.831Z,22.53
2023-03-18T23:54:14.441Z,24.80
2023-03-18T23:57:16.151Z,22.47
